Time;durP1;ratioP1;P1;durP2;ratioP2;P2;SDS_P1;SDS_P2;PMS_P1;PMS_P2;Temp;Humidity;BMP_temperature;BMP_pressure;BME280_temperature;BME280_humidity;BME280_pressure;Samples;Min_cycle;Max_cycle;Signal;HPM_P1;HPM_P2
2021/05/18 00:06:22;;;;;;;4.95;2.72;;;10.90;99.90;;;;;;5070544;28;20058;-63
2021/05/18 00:11:47;;;;;;;4.53;2.90;;;10.90;99.90;;;;;;5040751;28;20045;-63
2021/05/18 00:14:23;;;;;;;6.18;3.22;;;10.90;99.90;;;;;;5069830;28;20041;-63
2021/05/18 00:21:10;;;;;;;5.68;2.80;;;10.90;99.90;;;;;;5048291;28;20091;-63
2021/05/18 00:23:55;;;;;;;4.72;2.65;;;10.80;99.90;;;;;;5063751;28;20137;-63
2021/05/18 00:26:42;;;;;;;7.82;3.00;;;10.80;99.90;;;;;;5065583;28;20472;-63
2021/05/18 00:29:31;;;;;;;7.43;3.60;;;10.80;99.90;;;;;;5039218;28;20476;-63
2021/05/18 00:36:26;;;;;;;6.60;2.92;;;10.80;99.90;;;;;;5049736;28;20085;-63
2021/05/18 00:39:06;;;;;;;5.13;3.17;;;10.70;99.90;;;;;;5067205;28;20111;-63
2021/05/18 00:41:35;;;;;;;4.95;3.38;;;10.70;99.90;;;;;;5040248;28;20037;-63
2021/05/18 00:51:24;;;;;;;4.55;2.58;;;10.70;99.90;;;;;;5055200;28;20063;-63
2021/05/18 00:54:08;;;;;;;6.32;3.75;;;10.70;99.90;;;;;;5075287;28;20043;-63
2021/05/18 01:04:03;;;;;;;6.68;3.58;;;10.60;99.90;;;;;;5042498;28;20059;-62
2021/05/18 01:06:36;;;;;;;6.40;3.13;;;10.60;99.90;;;;;;5037702;28;20045;-63
2021/05/18 01:09:20;;;;;;;6.82;3.42;;;10.50;99.90;;;;;;5064442;28;20464;-63
2021/05/18 01:12:11;;;;;;;7.03;3.63;;;10.50;99.90;;;;;;5036214;28;20033;-62
2021/05/18 01:19:09;;;;;;;5.53;3.50;;;10.50;99.90;;;;;;5053926;28;20043;-63
2021/05/18 01:21:57;;;;;;;4.57;2.85;;;10.40;99.90;;;;;;5037681;28;20037;-62
2021/05/18 01:24:28;;;;;;;6.68;3.42;;;10.50;99.90;;;;;;5051248;28;20392;-63
2021/05/18 01:27:26;;;;;;;6.55;3.28;;;10.40;99.90;;;;;;5050155;28;20037;-62
2021/05/18 01:29:54;;;;;;;6.78;3.30;;;10.40;99.90;;;;;;5040161;28;20110;-63
2021/05/18 01:32:25;;;;;;;5.53;3.42;;;10.40;99.90;;;;;;5039239;28;20049;-63
2021/05/18 01:44:51;;;;;;;5.88;3.38;;;10.50;99.90;;;;;;5051275;28;20489;-62
2021/05/18 01:47:32;;;;;;;6.03;3.35;;;10.20;99.90;;;;;;5041153;28;20052;-62
2021/05/18 01:54:30;;;;;;;4.47;2.70;;;10.20;99.90;;;;;;5064704;28;20412;-63
2021/05/18 02:07:16;;;;;;;5.95;3.17;;;10.10;99.90;;;;;;5038003;28;20038;-62
2021/05/18 02:09:45;;;;;;;5.82;3.13;;;10.00;99.90;;;;;;5046678;28;20041;-62
2021/05/18 02:12:38;;;;;;;6.45;3.30;;;10.00;99.90;;;;;;5044810;28;20374;-62
2021/05/18 02:19:27;;;;;;;3.92;2.67;;;9.90;99.90;;;;;;5070103;28;20094;-62
2021/05/18 02:25:01;;;;;;;5.20;2.80;;;9.90;99.90;;;;;;5058597;28;20040;-63
2021/05/18 02:27:33;;;;;;;6.22;3.20;;;9.90;99.90;;;;;;5058021;28;20112;-63
2021/05/18 02:30:19;;;;;;;5.55;3.17;;;9.90;99.90;;;;;;5034371;28;20485;-63
2021/05/18 02:32:52;;;;;;;6.95;3.10;;;9.90;99.90;;;;;;5046944;28;20080;-63
2021/05/18 02:39:14;;;;;;;5.53;2.90;;;9.80;99.90;;;;;;5071623;28;20039;-62
2021/05/18 02:41:44;;;;;;;4.55;2.83;;;9.80;99.90;;;;;;5062077;28;20059;-62
2021/05/18 02:49:30;;;;;;;7.43;3.70;;;9.60;99.90;;;;;;5050480;28;20041;-62
2021/05/18 02:51:56;;;;;;;5.72;3.35;;;9.50;99.90;;;;;;5035155;28;20092;-63
2021/05/18 02:54:56;;;;;;;6.45;3.45;;;9.60;99.90;;;;;;5033119;28;20073;-62
2021/05/18 02:57:38;;;;;;;5.30;3.15;;;9.60;99.90;;;;;;5034071;28;20115;-63
2021/05/18 03:00:14;;;;;;;7.90;4.03;;;9.50;99.90;;;;;;5045956;28;20159;-62
2021/05/18 03:02:57;;;;;;;7.93;3.47;;;9.50;99.90;;;;;;5040844;28;20041;-62
2021/05/18 03:05:38;;;;;;;6.82;4.00;;;9.50;99.90;;;;;;5061496;28;20053;-63
2021/05/18 03:11:53;;;;;;;5.70;3.13;;;9.40;99.90;;;;;;5058449;28;20036;-62
2021/05/18 03:14:23;;;;;;;7.40;3.58;;;9.40;99.90;;;;;;5050607;28;20041;-62
2021/05/18 03:16:55;;;;;;;5.25;3.38;;;9.30;99.90;;;;;;5048039;28;20065;-64
2021/05/18 03:19:52;;;;;;;6.80;3.50;;;9.30;99.90;;;;;;5068494;28;20041;-65
2021/05/18 03:22:35;;;;;;;6.35;3.40;;;9.30;99.90;;;;;;5067848;28;20041;-65
2021/05/18 03:25:04;;;;;;;5.95;2.95;;;9.30;99.90;;;;;;5032917;28;20508;-64
2021/05/18 03:27:36;;;;;;;5.13;3.22;;;9.20;99.90;;;;;;5048533;28;20064;-64
2021/05/18 03:36:59;;;;;;;5.55;2.70;;;9.20;99.90;;;;;;5047641;28;20044;-64
2021/05/18 03:52:21;;;;;;;5.05;3.13;;;9.10;99.90;;;;;;5054204;28;20048;-65
2021/05/18 04:17:16;;;;;;;6.38;2.75;;;8.90;99.90;;;;;;5052446;28;20488;-65
2021/05/18 04:20:22;;;;;;;5.03;2.72;;;8.90;99.90;;;;;;5043905;28;20037;-64
2021/05/18 04:52:06;;;;;;;4.95;2.67;;;9.00;99.90;;;;;;5042928;28;20091;-64
2021/05/18 04:58:57;;;;;;;6.32;3.17;;;9.10;99.90;;;;;;5072020;28;20057;-65
2021/05/18 05:14:54;;;;;;;5.22;3.08;;;9.50;99.90;;;;;;5068587;28;20048;-65
2021/05/18 05:21:14;;;;;;;4.68;2.60;;;9.70;99.90;;;;;;5045148;28;20099;-65
2021/05/18 05:24:26;;;;;;;4.85;2.92;;;9.80;99.90;;;;;;5050838;28;20048;-65
2021/05/18 05:26:58;;;;;;;5.13;3.03;;;9.80;99.90;;;;;;5054609;28;20048;-65
2021/05/18 05:29:27;;;;;;;6.15;2.78;;;9.80;99.90;;;;;;5050153;28;20037;-65
2021/05/18 05:32:12;;;;;;;5.90;3.10;;;9.80;99.90;;;;;;5066508;28;20166;-65
2021/05/18 05:34:43;;;;;;;5.80;3.08;;;9.90;99.90;;;;;;5053416;28;20045;-65
2021/05/18 05:37:09;;;;;;;7.70;3.67;;;9.90;99.90;;;;;;5055744;28;20052;-65
2021/05/18 05:46:57;;;;;;;4.43;2.60;;;10.00;99.90;;;;;;5034427;28;20045;-65
2021/05/18 05:49:24;;;;;;;4.90;3.17;;;10.00;99.90;;;;;;5052280;28;20041;-65
2021/05/18 05:52:19;;;;;;;5.28;3.50;;;10.10;99.90;;;;;;5048920;28;20075;-65
2021/05/18 05:54:55;;;;;;;4.68;3.05;;;10.10;99.90;;;;;;5054394;28;20059;-65
2021/05/18 05:57:26;;;;;;;5.22;3.00;;;10.30;99.90;;;;;;5041480;28;20048;-65
2021/05/18 05:59:53;;;;;;;5.70;3.28;;;10.20;99.90;;;;;;5042136;28;20043;-65
2021/05/18 06:06:53;;;;;;;8.25;3.90;;;10.40;99.90;;;;;;5040566;28;20452;-65
2021/05/18 06:10:05;;;;;;;5.00;2.63;;;10.50;99.90;;;;;;5049090;28;20041;-65
2021/05/18 06:48:10;;;;;;;3.90;2.00;;;11.30;99.90;;;;;;5038384;28;20378;-69
2021/05/18 06:54:42;;;;;;;4.65;2.83;;;11.50;99.90;;;;;;5032807;28;20115;-67
2021/05/18 06:57:31;;;;;;;13.10;3.60;;;11.50;99.90;;;;;;5049827;28;20045;-70
2021/05/18 07:00:25;;;;;;;4.90;3.05;;;11.50;99.90;;;;;;5022841;28;20124;-70
2021/05/18 07:06:40;;;;;;;5.13;3.20;;;11.50;99.90;;;;;;5047308;28;20460;-70
2021/05/18 07:09:14;;;;;;;5.20;2.72;;;11.60;99.90;;;;;;5035950;28;20041;-70
2021/05/18 07:19:00;;;;;;;5.93;2.60;;;11.80;99.90;;;;;;5043554;28;20057;-69
2021/05/18 07:21:44;;;;;;;5.72;3.55;;;11.90;99.90;;;;;;5059394;28;20131;-70
2021/05/18 07:24:17;;;;;;;7.20;3.22;;;11.90;99.90;;;;;;5071317;28;20044;-69
2021/05/18 07:27:02;;;;;;;4.20;2.75;;;11.90;99.90;;;;;;5036883;28;20504;-68
2021/05/18 07:29:44;;;;;;;4.18;2.72;;;12.10;99.90;;;;;;5069244;28;20044;-69
2021/05/18 07:32:11;;;;;;;6.43;3.67;;;12.20;99.90;;;;;;5038934;28;20041;-67
2021/05/18 07:34:39;;;;;;;4.47;2.92;;;12.20;99.90;;;;;;5057455;28;20044;-64
2021/05/18 07:37:12;;;;;;;4.07;2.72;;;12.30;99.90;;;;;;5041782;28;20040;-64
2021/05/18 07:43:58;;;;;;;5.88;3.00;;;12.40;99.90;;;;;;5056502;28;20124;-64
2021/05/18 07:46:36;;;;;;;5.15;3.00;;;12.50;99.90;;;;;;5060436;28;20049;-67
2021/05/18 07:49:34;;;;;;;5.20;3.15;;;12.50;99.90;;;;;;5071605;28;20047;-67
2021/05/18 08:11:28;;;;;;;6.60;3.35;;;12.70;99.90;;;;;;5038613;28;20509;-67
2021/05/18 08:14:21;;;;;;;4.80;3.15;;;12.80;99.90;;;;;;5035711;28;20037;-68
2021/05/18 08:17:13;;;;;;;3.95;2.83;;;12.80;99.90;;;;;;5050499;28;20094;-68
2021/05/18 10:36:41;;;;;;;2.70;1.52;;;13.40;99.90;;;;;;5051361;28;20421;-65
2021/05/18 10:39:29;;;;;;;4.95;2.13;;;13.50;99.90;;;;;;5052852;28;20075;-64
2021/05/18 10:49:40;;;;;;;2.78;1.80;;;13.50;99.90;;;;;;5073052;28;20068;-65
2021/05/18 10:56:30;;;;;;;3.25;2.10;;;13.60;99.90;;;;;;5043290;28;20072;-63
2021/05/18 10:59:16;;;;;;;3.33;1.88;;;13.80;99.90;;;;;;5066151;28;20495;-64
2021/05/18 11:02:06;;;;;;;4.43;2.47;;;13.90;99.90;;;;;;5050357;28;20044;-64
2021/05/18 11:12:24;;;;;;;3.88;1.85;;;14.00;99.90;;;;;;5069156;28;20044;-64
2021/05/18 11:19:11;;;;;;;4.10;2.60;;;14.20;99.90;;;;;;5047256;28;20047;-65
2021/05/18 11:21:54;;;;;;;4.43;1.95;;;14.20;99.90;;;;;;5042061;28;20113;-64
2021/05/18 11:24:48;;;;;;;2.72;1.80;;;14.10;99.90;;;;;;5059681;28;20140;-64
2021/05/18 11:31:29;;;;;;;5.18;2.88;;;13.90;99.90;;;;;;5036708;28;20389;-65
2021/05/18 11:34:04;;;;;;;3.40;1.92;;;13.90;99.90;;;;;;5036093;28;20041;-66
2021/05/18 11:36:54;;;;;;;3.17;2.13;;;13.80;99.90;;;;;;5052294;28;20041;-65
2021/05/18 11:39:45;;;;;;;3.53;2.28;;;13.80;99.90;;;;;;5056001;28;20049;-65
2021/05/18 11:42:30;;;;;;;4.30;2.72;;;13.70;99.90;;;;;;5045323;28;20052;-65
2021/05/18 11:49:03;;;;;;;3.90;2.30;;;13.70;99.90;;;;;;5060579;28;20043;-67
2021/05/18 11:52:01;;;;;;;3.47;2.33;;;13.70;99.90;;;;;;5051930;28;20046;-63
2021/05/18 11:55:10;;;;;;;2.83;1.60;;;13.60;99.90;;;;;;5062282;28;20488;-66
2021/05/18 12:02:05;;;;;;;3.55;1.70;;;13.70;99.90;;;;;;5055449;28;20044;-65
2021/05/18 12:09:01;;;;;;;4.05;2.63;;;13.70;99.90;;;;;;5047733;28;20048;-65
2021/05/18 12:11:53;;;;;;;3.55;2.05;;;13.70;99.90;;;;;;5051892;28;20052;-64
2021/05/18 12:14:48;;;;;;;3.67;2.20;;;13.70;99.90;;;;;;5065571;28;20036;-64
2021/05/18 12:17:35;;;;;;;5.07;2.28;;;13.80;99.90;;;;;;5042413;28;20401;-66
2021/05/18 12:20:26;;;;;;;4.68;1.95;;;13.80;99.90;;;;;;5057100;28;20549;-65
2021/05/18 12:27:04;;;;;;;4.65;2.63;;;13.70;99.90;;;;;;5035693;28;20439;-64
2021/05/18 12:29:52;;;;;;;3.67;2.25;;;13.70;99.90;;;;;;5055551;28;20045;-65
2021/05/18 12:32:21;;;;;;;3.05;2.17;;;13.70;99.90;;;;;;5049187;28;20037;-64
2021/05/18 12:39:10;;;;;;;4.72;2.20;;;13.90;99.90;;;;;;5056799;28;20116;-66
2021/05/18 12:42:03;;;;;;;3.83;2.15;;;14.10;99.90;;;;;;5052737;28;20107;-66
2021/05/18 12:44:59;;;;;;;5.40;2.75;;;14.10;99.90;;;;;;5051749;28;20037;-67
2021/05/18 12:51:29;;;;;;;3.05;1.85;;;14.00;99.90;;;;;;5046657;28;20119;-65
2021/05/18 12:54:04;;;;;;;3.65;2.45;;;14.00;99.90;;;;;;5035150;28;20164;-66
2021/05/18 12:56:39;;;;;;;5.60;3.13;;;14.00;99.90;;;;;;5056723;28;20052;-65
2021/05/18 12:59:18;;;;;;;5.32;2.78;;;14.10;99.90;;;;;;5046897;28;20401;-65
2021/05/18 13:09:18;;;;;;;6.22;3.45;;;14.00;99.90;;;;;;5054982;28;20041;-65
2021/05/18 13:12:12;;;;;;;7.55;2.50;;;14.00;99.90;;;;;;5054683;28;20382;-66
2021/05/18 13:19:06;;;;;;;5.95;3.63;;;14.10;99.90;;;;;;5069545;28;20491;-66
2021/05/18 13:21:38;;;;;;;5.50;3.25;;;14.10;99.90;;;;;;5073730;28;20041;-65
2021/05/18 13:27:06;;;;;;;5.38;3.20;;;14.20;99.90;;;;;;5055877;28;20049;-65
2021/05/18 13:29:37;;;;;;;5.10;3.35;;;14.20;99.90;;;;;;5042202;28;20072;-64
2021/05/18 13:32:05;;;;;;;5.90;3.55;;;14.20;99.90;;;;;;5064394;28;20044;-68
2021/05/18 13:34:43;;;;;;;7.13;3.80;;;14.10;99.90;;;;;;5043433;28;20053;-66
2021/05/18 13:37:16;;;;;;;6.78;3.22;;;14.00;99.90;;;;;;5073774;28;20484;-66
2021/05/18 13:39:48;;;;;;;5.90;3.25;;;14.00;99.90;;;;;;5066512;28;20037;-66
2021/05/18 13:42:20;;;;;;;4.88;3.20;;;14.20;99.90;;;;;;5051750;28;20132;-67
2021/05/18 13:44:52;;;;;;;5.80;3.47;;;14.30;99.90;;;;;;5039995;28;20099;-67
2021/05/18 13:47:19;;;;;;;8.05;3.83;;;14.40;99.90;;;;;;5056654;28;20053;-67
2021/05/18 13:54:16;;;;;;;5.65;3.00;;;14.20;99.90;;;;;;5054930;28;20087;-67
2021/05/18 13:57:10;;;;;;;5.03;3.17;;;14.10;99.90;;;;;;5042392;28;20061;-67
2021/05/18 14:00:01;;;;;;;4.30;2.83;;;14.10;99.90;;;;;;5059572;28;20060;-67
2021/05/18 14:06:33;;;;;;;4.40;2.88;;;14.10;99.90;;;;;;5053793;28;20043;-66
2021/05/18 14:09:01;;;;;;;5.00;2.97;;;14.20;99.90;;;;;;5037094;28;20046;-66
2021/05/18 14:11:30;;;;;;;5.90;2.97;;;14.20;99.90;;;;;;5034037;28;20037;-66
2021/05/18 14:14:02;;;;;;;4.22;2.65;;;14.30;99.90;;;;;;5043826;28;20519;-66
2021/05/18 14:16:30;;;;;;;6.03;3.25;;;14.20;99.90;;;;;;5047535;28;20487;-65
2021/05/18 14:19:02;;;;;;;6.30;3.03;;;14.20;99.90;;;;;;5062753;28;20041;-66
2021/05/18 14:21:29;;;;;;;5.53;3.35;;;14.10;99.90;;;;;;5055225;28;20377;-66
2021/05/18 14:24:50;;;;;;;5.38;3.63;;;14.00;99.90;;;;;;5053839;28;20377;-67
2021/05/18 14:27:22;;;;;;;6.38;3.30;;;14.00;99.90;;;;;;5049201;28;20037;-66
2021/05/18 14:30:35;;;;;;;5.78;3.78;;;14.20;99.90;;;;;;5049308;28;20041;-66
2021/05/18 14:36:32;;;;;;;6.35;3.47;;;14.20;99.90;;;;;;5050727;28;20041;-65
2021/05/18 14:55:37;;;;;;;7.15;4.03;;;14.50;99.90;;;;;;5039653;28;20045;-66
2021/05/18 15:01:45;;;;;;;5.70;3.20;;;14.60;99.90;;;;;;5034117;28;20110;-67
2021/05/18 15:04:38;;;;;;;8.63;3.95;;;14.60;99.90;;;;;;5051837;28;20117;-65
2021/05/18 15:11:31;;;;;;;7.97;4.07;;;14.50;99.90;;;;;;5040096;28;20052;-68
2021/05/18 15:13:59;;;;;;;6.32;3.95;;;14.50;99.90;;;;;;5041505;28;20459;-66
2021/05/18 15:16:31;;;;;;;6.03;4.05;;;14.40;99.90;;;;;;5062593;28;20040;-66
2021/05/18 15:19:09;;;;;;;9.25;4.13;;;14.40;99.90;;;;;;5047397;28;20512;-65
2021/05/18 15:22:01;;;;;;;6.45;3.90;;;14.20;99.90;;;;;;5049090;28;20502;-66
2021/05/18 15:24:42;;;;;;;6.47;3.47;;;14.20;99.90;;;;;;5070431;28;20044;-66
2021/05/18 15:31:29;;;;;;;5.72;3.50;;;14.10;99.90;;;;;;5037802;28;20045;-66
2021/05/18 15:34:04;;;;;;;5.28;3.60;;;14.10;99.90;;;;;;5061802;28;20037;-67
2021/05/18 15:36:31;;;;;;;5.72;3.42;;;14.10;99.90;;;;;;5047617;28;20041;-67
2021/05/18 15:39:00;;;;;;;9.07;3.65;;;14.20;99.90;;;;;;5038023;28;20485;-67
2021/05/18 15:41:29;;;;;;;6.75;3.50;;;14.30;99.90;;;;;;5071680;28;20037;-68
2021/05/18 15:44:00;;;;;;;6.65;3.42;;;14.40;99.90;;;;;;5048254;28;20056;-67
2021/05/18 15:46:32;;;;;;;5.15;3.83;;;14.60;99.90;;;;;;5055634;28;20041;-64
2021/05/18 15:49:19;;;;;;;6.18;3.70;;;14.80;99.90;;;;;;5067315;28;20041;-64
2021/05/18 15:52:04;;;;;;;9.63;3.70;;;14.80;99.90;;;;;;5037578;28;20068;-64
2021/05/18 15:54:49;;;;;;;4.20;3.10;;;14.80;99.90;;;;;;5052742;28;20052;-67
2021/05/18 16:01:29;;;;;;;6.53;3.50;;;14.70;99.90;;;;;;5044021;28;20573;-65
2021/05/18 16:04:08;;;;;;;5.95;3.28;;;14.70;99.90;;;;;;5036337;28;20595;-64
2021/05/18 16:06:42;;;;;;;6.72;4.10;;;14.70;99.90;;;;;;5058204;28;20063;-65
2021/05/18 16:09:13;;;;;;;7.25;3.30;;;14.60;99.90;;;;;;5040769;28;20508;-65
2021/05/18 16:11:45;;;;;;;7.10;3.65;;;14.50;99.90;;;;;;5056739;28;20048;-65
2021/05/18 16:14:11;;;;;;;7.57;4.05;;;14.40;99.90;;;;;;5056333;28;20040;-66
2021/05/18 16:20:49;;;;;;;5.22;2.78;;;14.30;99.90;;;;;;5039597;28;20538;-66
2021/05/18 16:23:22;;;;;;;4.28;2.95;;;14.20;99.90;;;;;;5049962;28;20398;-66
2021/05/18 16:29:30;;;;;;;6.25;3.70;;;14.10;99.90;;;;;;5055453;28;20039;-66
2021/05/18 16:35:40;;;;;;;6.70;3.92;;;14.20;99.90;;;;;;5035916;28;20472;-67
2021/05/18 16:45:37;;;;;;;9.40;4.55;;;14.20;99.90;;;;;;5055615;28;20083;-66
2021/05/18 16:51:45;;;;;;;7.32;4.72;;;14.10;99.90;;;;;;5055433;28;20082;-67
2021/05/18 17:09:53;;;;;;;7.38;4.65;;;14.10;99.90;;;;;;5055023;28;20522;-65
2021/05/18 17:16:18;;;;;;;6.40;4.25;;;14.10;99.90;;;;;;5054729;28;20112;-65
2021/05/18 17:22:59;;;;;;;7.32;3.78;;;14.00;99.90;;;;;;5034972;28;20028;-63
2021/05/18 17:33:30;;;;;;;5.32;3.08;;;13.80;99.90;;;;;;5067855;28;20082;-66
2021/05/18 17:35:56;;;;;;;5.03;3.38;;;13.70;99.90;;;;;;5070316;28;20545;-66
2021/05/18 17:38:56;;;;;;;6.20;3.10;;;13.70;99.90;;;;;;5072767;28;20045;-66
2021/05/18 17:41:39;;;;;;;5.97;3.15;;;13.70;99.90;;;;;;5038302;28;20041;-65
2021/05/18 17:44:07;;;;;;;5.68;3.75;;;13.70;99.90;;;;;;5039558;28;20130;-66
2021/05/18 17:50:55;;;;;;;5.75;3.55;;;13.60;99.90;;;;;;5047128;28;20080;-65
2021/05/18 17:53:27;;;;;;;8.20;5.05;;;13.50;99.90;;;;;;5049714;28;20060;-66
2021/05/18 17:56:27;;;;;;;7.78;3.80;;;13.40;99.90;;;;;;5034162;28;20042;-66
2021/05/18 18:10:34;;;;;;;9.55;3.88;;;13.30;99.90;;;;;;5034123;28;20167;-67
2021/05/18 18:16:41;;;;;;;9.50;4.80;;;13.10;99.90;;;;;;5044217;28;20047;-65
2021/05/18 18:23:27;;;;;;;5.65;3.45;;;13.00;99.90;;;;;;5073537;28;20081;-65
2021/05/18 18:26:00;;;;;;;6.18;4.00;;;12.80;99.90;;;;;;5033728;28;20049;-64
2021/05/18 18:28:35;;;;;;;7.70;3.83;;;12.70;99.90;;;;;;5053837;28;20073;-65
2021/05/18 18:38:25;;;;;;;5.85;3.25;;;12.50;99.90;;;;;;5037650;28;20043;-64
2021/05/18 18:40:57;;;;;;;7.20;4.18;;;12.50;99.90;;;;;;5053857;28;20056;-64
2021/05/18 18:43:29;;;;;;;9.13;4.95;;;12.50;99.90;;;;;;5070894;28;20115;-65
2021/05/18 18:45:55;;;;;;;8.43;3.75;;;12.40;99.90;;;;;;5051918;28;20048;-65
2021/05/18 18:48:35;;;;;;;8.98;3.95;;;12.50;99.90;;;;;;5068045;28;20048;-65
2021/05/18 18:51:13;;;;;;;8.95;4.40;;;12.50;99.90;;;;;;5034967;28;20045;-65
2021/05/18 18:53:53;;;;;;;8.93;5.28;;;12.50;99.90;;;;;;5045229;28;20041;-65
2021/05/18 18:56:30;;;;;;;9.40;5.30;;;12.50;99.90;;;;;;5036324;28;20037;-64
2021/05/18 18:58:58;;;;;;;9.15;5.20;;;12.50;99.90;;;;;;5043919;28;20056;-64
2021/05/18 19:01:53;;;;;;;8.23;4.53;;;12.50;99.90;;;;;;5057260;28;20112;-65
2021/05/18 19:04:33;;;;;;;10.48;6.25;;;12.50;99.90;;;;;;5055571;28;20495;-65
2021/05/18 19:07:33;;;;;;;10.45;5.30;;;12.40;99.90;;;;;;5049904;28;20053;-65
2021/05/18 19:13:36;;;;;;;9.68;4.30;;;12.30;99.90;;;;;;5052624;28;20048;-65
2021/05/18 19:16:23;;;;;;;7.43;4.55;;;12.30;99.90;;;;;;5047460;28;20053;-65
2021/05/18 19:19:17;;;;;;;7.78;4.47;;;12.20;99.90;;;;;;5037799;28;20409;-65
2021/05/18 19:25:55;;;;;;;7.45;3.65;;;12.20;99.90;;;;;;5063797;28;20086;-66
2021/05/18 19:28:34;;;;;;;8.82;4.88;;;12.10;99.90;;;;;;5075505;28;20040;-66
2021/05/18 19:31:10;;;;;;;7.35;4.43;;;12.10;99.90;;;;;;5076868;28;20427;-65
2021/05/18 19:33:40;;;;;;;7.97;4.95;;;12.00;99.90;;;;;;5055136;28;20109;-66
2021/05/18 19:49:22;;;;;;;7.13;4.10;;;11.80;99.90;;;;;;5038825;28;20092;-67
2021/05/18 19:52:09;;;;;;;8.60;4.18;;;11.70;99.90;;;;;;5040640;28;20047;-66
2021/05/18 19:58:36;;;;;;;5.72;3.58;;;11.60;99.90;;;;;;5050668;28;20399;-66
2021/05/18 20:08:16;;;;;;;5.55;2.80;;;11.60;99.90;;;;;;5041092;28;20072;-65
2021/05/18 20:21:40;;;;;;;5.07;2.45;;;11.30;99.90;;;;;;5052161;28;20132;-64
2021/05/18 20:28:36;;;;;;;4.72;2.28;;;11.40;99.90;;;;;;5060354;28;20047;-65
2021/05/18 20:31:29;;;;;;;3.08;1.73;;;11.30;99.90;;;;;;5056115;28;20044;-65
2021/05/18 20:41:08;;;;;;;3.40;2.03;;;11.30;99.90;;;;;;5055591;28;20048;-65
2021/05/18 20:43:35;;;;;;;5.15;2.83;;;11.40;99.90;;;;;;5035552;28;20572;-65
2021/05/18 20:46:07;;;;;;;3.92;2.40;;;11.30;99.90;;;;;;5048785;28;20056;-65
2021/05/18 20:48:40;;;;;;;7.03;3.38;;;11.30;99.90;;;;;;5043084;28;20116;-65
2021/05/18 20:51:08;;;;;;;4.85;2.75;;;11.40;99.90;;;;;;5065929;28;20055;-66
2021/05/18 20:53:52;;;;;;;5.15;2.97;;;11.30;99.90;;;;;;5060136;28;20064;-64
2021/05/18 20:56:50;;;;;;;4.53;2.30;;;11.30;99.90;;;;;;5061183;28;20051;-65
2021/05/18 20:59:18;;;;;;;4.50;2.65;;;11.30;99.90;;;;;;5047958;28;20068;-65
2021/05/18 21:01:57;;;;;;;4.28;2.22;;;11.20;99.90;;;;;;5037957;28;20053;-65
2021/05/18 21:04:23;;;;;;;4.82;2.42;;;11.20;99.90;;;;;;5068185;28;20049;-66
2021/05/18 21:07:16;;;;;;;3.97;2.45;;;11.10;99.90;;;;;;5046635;28;20380;-65
2021/05/18 21:10:11;;;;;;;4.10;2.47;;;11.30;99.90;;;;;;5038134;28;20053;-65
2021/05/18 21:19:58;;;;;;;5.55;2.70;;;10.90;99.90;;;;;;5066344;28;20098;-65
2021/05/18 21:26:21;;;;;;;;;;;;;;;;;;;;;
2021/05/18 21:29:22;;;;;;;3.80;2.35;;;10.70;99.90;;;;;;5039776;28;20507;-65
2021/05/18 21:31:57;;;;;;;4.97;2.28;;;10.60;99.90;;;;;;5039123;28;20045;-65
2021/05/18 21:34:27;;;;;;;5.45;2.35;;;10.50;99.90;;;;;;5040030;28;20045;-65
2021/05/18 21:36:54;;;;;;;6.20;2.55;;;10.50;99.90;;;;;;5052028;28;20480;-65
2021/05/18 21:50:28;;;;;;;4.00;2.33;;;10.30;99.90;;;;;;5039193;28;20436;-65
2021/05/18 21:53:02;;;;;;;4.68;2.17;;;10.20;99.90;;;;;;5050054;28;20118;-65
2021/05/18 21:56:15;;;;;;;6.53;3.00;;;10.10;99.90;;;;;;5049226;28;20041;-65
2021/05/18 21:58:47;;;;;;;6.90;3.35;;;10.00;99.90;;;;;;5042527;28;20494;-66
2021/05/18 22:01:18;;;;;;;7.78;3.25;;;10.00;99.90;;;;;;5036561;28;20045;-65
2021/05/18 22:14:17;;;;;;;8.70;3.00;;;9.80;99.90;;;;;;5054292;28;20480;-65
2021/05/18 22:26:19;;;;;;;4.03;2.33;;;9.60;99.90;;;;;;5056160;28;20049;-65
2021/05/18 22:29:05;;;;;;;5.43;2.90;;;9.60;99.90;;;;;;5053539;28;20051;-64
2021/05/18 22:38:50;;;;;;;5.05;2.95;;;9.40;99.90;;;;;;5049584;28;20056;-65
2021/05/18 22:41:22;;;;;;;8.03;3.40;;;9.40;99.90;;;;;;5054165;28;20079;-65
2021/05/18 22:51:19;;;;;;;5.05;2.95;;;9.40;99.90;;;;;;5040155;28;20038;-65
2021/05/18 22:53:56;;;;;;;7.63;3.58;;;9.30;99.90;;;;;;5069351;28;20037;-65
2021/05/18 22:56:24;;;;;;;6.57;3.67;;;9.30;99.90;;;;;;5032191;28;20045;-65
2021/05/18 22:58:56;;;;;;;5.78;3.72;;;9.20;99.90;;;;;;5044322;28;20102;-65
2021/05/18 23:01:25;;;;;;;6.75;3.22;;;9.30;99.90;;;;;;5057260;28;20084;-65
2021/05/18 23:03:58;;;;;;;6.10;3.17;;;9.20;99.90;;;;;;5073332;28;20044;-65
2021/05/18 23:06:25;;;;;;;6.75;3.22;;;9.10;99.90;;;;;;5053031;28;20041;-65
2021/05/18 23:09:00;;;;;;;5.57;3.58;;;9.10;99.90;;;;;;5035441;28;20469;-65
2021/05/18 23:11:28;;;;;;;4.45;2.67;;;9.10;99.90;;;;;;5057331;28;20045;-65
2021/05/18 23:14:04;;;;;;;6.05;2.97;;;9.00;99.90;;;;;;5048227;28;20049;-65
2021/05/18 23:16:36;;;;;;;5.90;3.35;;;9.00;99.90;;;;;;5052387;28;20065;-65
2021/05/18 23:19:09;;;;;;;;;;;8.90;99.90;;;;;;5040730;28;20075;-65
2021/05/18 23:21:55;;;;;;;5.80;2.33;;;8.90;99.90;;;;;;5050081;28;20381;-65
2021/05/18 23:24:27;;;;;;;4.57;2.55;;;8.90;99.90;;;;;;5053484;28;20037;-65
2021/05/18 23:26:57;;;;;;;5.20;3.17;;;8.90;99.90;;;;;;5050272;28;20038;-65
2021/05/18 23:29:37;;;;;;;5.05;3.03;;;8.90;99.90;;;;;;5069120;28;20472;-65
2021/05/18 23:32:09;;;;;;;4.47;2.63;;;9.00;99.90;;;;;;5071797;28;20036;-65
2021/05/18 23:34:38;;;;;;;5.28;2.63;;;8.90;99.90;;;;;;5064010;28;20042;-65
2021/05/18 23:37:07;;;;;;;5.65;2.72;;;8.90;99.90;;;;;;5044671;28;20044;-65
2021/05/18 23:39:38;;;;;;;6.45;2.80;;;8.80;99.90;;;;;;5064351;28;20080;-65
2021/05/18 23:42:16;;;;;;;5.43;3.08;;;8.90;99.90;;;;;;5050141;28;20045;-65
2021/05/18 23:48:31;;;;;;;4.20;2.53;;;8.80;99.90;;;;;;5049128;28;20091;-65
2021/05/18 23:51:20;;;;;;;4.03;2.60;;;8.80;99.90;;;;;;5065000;28;20502;-65
2021/05/18 23:53:52;;;;;;;4.97;2.65;;;8.70;99.90;;;;;;5051837;28;20041;-65
2021/05/18 23:56:23;;;;;;;5.25;2.60;;;8.70;99.90;;;;;;5032892;28;20132;-65
2021/05/18 23:58:51;;;;;;;4.80;2.65;;;8.70;99.90;;;;;;5060409;28;20071;-65
